Manitowoc, WI

1:41 PM CST on December 21, 2014 (GMT -0600)
Manitowoc County | Change Station
CLOSE
Current Station
Airport
Location: Manitowoc,
Elevation: 650 ft
Nearby Weather Stations

Elev 650 ft 44.13 °N, 87.68 °W | Updated 45 minutes ago

Overcast
Overcast
37 °F
Feels Like 29 °F
N
13
Wind Variable Wind from South

Today
High -- | Low -- °F
--% Chance of Precip.
Yesterday
High -- | Low -- °F
Precip. -- in
7:22 AM 4:15 PM
Waning Crescent, 0% visible
Pressure 30.15 in
Visibility 9.0 miles
Clouds Overcast 2600 ft
Windchill 29 °F
Dew Point 32 °F
Humidity 82%
Rainfall 0.00 in
Snow Depth Not available.
UV 0 out of 12
Pollen .10 out of 12
Air Quality Not available.
Flu Activity Not available.
METAR KMTW 211856Z AUTO 17011KT 9SM OVC026 03/00 A3007 RMK AO2 SLP209 T00280000

More Conditions Fewer Conditions

Pressure 30.15 in
Visibility 9.0 miles
Clouds Overcast 2600 ft
Windchill 29 °F
Dew Point 32 °F
Humidity 82%
Rainfall 0.00 in
Snow Depth Not available.
UV 0 out of 12
Pollen .10 out of 12
Air Quality Not available.
Flu Activity Not available.
METAR KMTW 211856Z AUTO 17011KT 9SM OVC026 03/00 A3007 RMK AO2 SLP209 T00280000

More Conditions Fewer Conditions

10-Day Weather Forecast

Almanac

Astronomy

Dec. 21, 2014 Rise Set
Actual Time
Civil Twilight
Nautical Twilight
Astronomical Twilight
Moon
Length of Visible Light
Length of Day
Tomorrow will be .
, % of the Moon is Illuminated

Today's Extremes

State Highs State Lows

Community

WunderPhotos

Upload Photos

1,779,469 photos uploaded!

WunderBlogs® & News

Nearby

Air Quality

  Air Quality AQ Index Pollutant
Not available.

Snow Depth

Station Depth Elevation

Earthquake Activity

City Distance Mag. Time & Date
Minimum magnitude displayed is 2.5.

Coastal Water Temperatures

Place Temperature

Nearby Weather Stations